KEMP/EMP METAR and TAF weather

Enter ICAO airport designator
Station Type Date Time Source
KEMP METAR 2019/02/23 02:29 UTC NOAA

KEMP 230229Z AUTO 00000KT 1/4SM VCTS FG VV002 02/02 A2996 RMK AO2 LTG DSNT N AND S AND SW RAE16 P0003 T00220022


Station Type Date Time Source
KEMP Decoded METAR 2019/02/23 02:29 UTC NOAA

EMPORIA MUNICIPAL AIRPORT, KS, United States (KEMP) 38-20N 96-12W 367M
Feb 22, 2019 - 09:29 PM EST / 2019.02.23 0229 UTC
Wind: Calm:0
Visibility: 1/4 mile(s):0
Sky conditions: obscured
Weather: thunder in the vicinity; fog; Lightning observed
Precipitation last hour: 0.03 inches
Temperature: 36.0 F (2.2 C)
Dew Point: 36.0 F (2.2 C)
Relative Humidity: 100%
Pressure (altimeter): 29.96 in. Hg (1014 hPa)
ob: KEMP 230229Z AUTO 00000KT 1/4SM VCTS FG VV002 02/02 A2996 RMK AO2 LTG DSNT N AND S AND SW RAE16 P0003 T00220022
cycle: 2

Station Type Date Time Source
KEMP TAF UTC NOAA

Error!


Example: see airport list